sensor_id;sensor_type;location;lat;lon;timestamp;P1;durP1;ratioP1;P2;durP2;ratioP2
2620;SDS011;1320;48.128;11.592;2022-10-16T00:01:20;3.40;;;1.70;;
2620;SDS011;1320;48.128;11.592;2022-10-16T00:03:47;2.67;;;1.90;;
2620;SDS011;1320;48.128;11.592;2022-10-16T00:06:14;3.87;;;1.83;;
2620;SDS011;1320;48.128;11.592;2022-10-16T00:08:42;3.10;;;1.80;;
2620;SDS011;1320;48.128;11.592;2022-10-16T00:11:21;2.83;;;1.70;;
2620;SDS011;1320;48.128;11.592;2022-10-16T00:13:49;3.30;;;2.13;;
2620;SDS011;1320;48.128;11.592;2022-10-16T00:16:17;5.33;;;1.37;;
2620;SDS011;1320;48.128;11.592;2022-10-16T00:18:43;3.30;;;1.60;;
2620;SDS011;1320;48.128;11.592;2022-10-16T00:21:13;3.50;;;2.03;;
2620;SDS011;1320;48.128;11.592;2022-10-16T00:23:43;3.00;;;1.80;;
2620;SDS011;1320;48.128;11.592;2022-10-16T00:26:16;3.80;;;2.20;;
2620;SDS011;1320;48.128;11.592;2022-10-16T00:28:42;3.27;;;1.77;;
2620;SDS011;1320;48.128;11.592;2022-10-16T00:31:10;2.90;;;1.60;;
2620;SDS011;1320;48.128;11.592;2022-10-16T00:33:37;2.93;;;1.70;;
2620;SDS011;1320;48.128;11.592;2022-10-16T00:36:05;3.40;;;1.87;;
2620;SDS011;1320;48.128;11.592;2022-10-16T00:38:32;3.30;;;2.00;;
2620;SDS011;1320;48.128;11.592;2022-10-16T00:40:58;3.20;;;1.80;;
2620;SDS011;1320;48.128;11.592;2022-10-16T00:46:29;2.80;;;1.53;;
2620;SDS011;1320;48.128;11.592;2022-10-16T00:51:21;4.30;;;2.00;;
2620;SDS011;1320;48.128;11.592;2022-10-16T00:53:50;2.50;;;1.20;;
2620;SDS011;1320;48.128;11.592;2022-10-16T00:56:16;3.60;;;1.40;;
2620;SDS011;1320;48.128;11.592;2022-10-16T00:58:42;3.47;;;2.27;;
2620;SDS011;1320;48.128;11.592;2022-10-16T01:01:08;3.27;;;1.87;;
2620;SDS011;1320;48.128;11.592;2022-10-16T01:03:35;4.73;;;1.60;;
2620;SDS011;1320;48.128;11.592;2022-10-16T01:08:44;2.80;;;1.50;;
2620;SDS011;1320;48.128;11.592;2022-10-16T01:11:27;2.20;;;1.20;;
2620;SDS011;1320;48.128;11.592;2022-10-16T01:23:01;4.07;;;1.70;;
2620;SDS011;1320;48.128;11.592;2022-10-16T01:28:28;3.33;;;1.70;;
2620;SDS011;1320;48.128;11.592;2022-10-16T01:31:03;2.43;;;1.33;;
2620;SDS011;1320;48.128;11.592;2022-10-16T01:33:40;3.47;;;2.30;;
2620;SDS011;1320;48.128;11.592;2022-10-16T01:36:15;4.57;;;1.63;;
2620;SDS011;1320;48.128;11.592;2022-10-16T01:38:47;3.00;;;1.40;;
2620;SDS011;1320;48.128;11.592;2022-10-16T01:41:24;4.50;;;1.50;;
2620;SDS011;1320;48.128;11.592;2022-10-16T01:44:06;2.67;;;1.23;;
2620;SDS011;1320;48.128;11.592;2022-10-16T01:46:36;3.40;;;1.80;;
2620;SDS011;1320;48.128;11.592;2022-10-16T01:49:05;2.73;;;1.50;;
2620;SDS011;1320;48.128;11.592;2022-10-16T01:51:33;3.37;;;1.80;;
2620;SDS011;1320;48.128;11.592;2022-10-16T01:54:00;7.30;;;1.87;;
2620;SDS011;1320;48.128;11.592;2022-10-16T01:56:29;3.50;;;1.53;;
2620;SDS011;1320;48.128;11.592;2022-10-16T01:59:15;2.47;;;1.50;;
2620;SDS011;1320;48.128;11.592;2022-10-16T02:01:45;2.90;;;1.60;;
2620;SDS011;1320;48.128;11.592;2022-10-16T02:04:15;3.20;;;1.77;;
2620;SDS011;1320;48.128;11.592;2022-10-16T02:07:02;3.23;;;1.70;;
2620;SDS011;1320;48.128;11.592;2022-10-16T02:09:29;4.43;;;1.80;;
2620;SDS011;1320;48.128;11.592;2022-10-16T02:11:58;3.37;;;1.90;;
2620;SDS011;1320;48.128;11.592;2022-10-16T02:14:27;2.60;;;1.37;;
2620;SDS011;1320;48.128;11.592;2022-10-16T02:16:54;2.67;;;1.33;;
2620;SDS011;1320;48.128;11.592;2022-10-16T02:19:19;2.90;;;1.47;;
2620;SDS011;1320;48.128;11.592;2022-10-16T02:21:48;2.97;;;1.63;;
2620;SDS011;1320;48.128;11.592;2022-10-16T02:27:01;2.77;;;1.53;;
2620;SDS011;1320;48.128;11.592;2022-10-16T02:29:29;2.33;;;1.20;;
2620;SDS011;1320;48.128;11.592;2022-10-16T02:31:57;4.20;;;2.07;;
2620;SDS011;1320;48.128;11.592;2022-10-16T02:34:26;2.70;;;1.10;;
2620;SDS011;1320;48.128;11.592;2022-10-16T02:36:53;2.77;;;1.53;;
2620;SDS011;1320;48.128;11.592;2022-10-16T02:39:20;2.77;;;1.63;;
2620;SDS011;1320;48.128;11.592;2022-10-16T02:41:46;2.27;;;1.23;;
2620;SDS011;1320;48.128;11.592;2022-10-16T02:44:12;2.60;;;1.27;;
2620;SDS011;1320;48.128;11.592;2022-10-16T02:46:38;2.63;;;1.27;;
2620;SDS011;1320;48.128;11.592;2022-10-16T02:49:04;3.23;;;1.40;;
2620;SDS011;1320;48.128;11.592;2022-10-16T02:51:29;4.60;;;1.57;;
2620;SDS011;1320;48.128;11.592;2022-10-16T02:53:55;3.37;;;1.50;;
2620;SDS011;1320;48.128;11.592;2022-10-16T02:56:21;2.40;;;0.90;;
2620;SDS011;1320;48.128;11.592;2022-10-16T02:58:46;4.03;;;1.60;;
2620;SDS011;1320;48.128;11.592;2022-10-16T03:01:12;2.67;;;1.33;;
2620;SDS011;1320;48.128;11.592;2022-10-16T03:03:39;3.80;;;1.53;;
2620;SDS011;1320;48.128;11.592;2022-10-16T03:06:05;2.43;;;1.20;;
2620;SDS011;1320;48.128;11.592;2022-10-16T03:08:31;2.53;;;1.40;;
2620;SDS011;1320;48.128;11.592;2022-10-16T03:10:56;2.10;;;1.17;;
2620;SDS011;1320;48.128;11.592;2022-10-16T03:13:22;2.70;;;1.20;;
2620;SDS011;1320;48.128;11.592;2022-10-16T03:15:48;2.90;;;1.37;;
2620;SDS011;1320;48.128;11.592;2022-10-16T03:18:13;2.50;;;1.37;;
2620;SDS011;1320;48.128;11.592;2022-10-16T03:20:39;2.63;;;1.30;;
2620;SDS011;1320;48.128;11.592;2022-10-16T03:23:05;3.33;;;1.70;;
2620;SDS011;1320;48.128;11.592;2022-10-16T03:25:33;3.73;;;1.20;;
2620;SDS011;1320;48.128;11.592;2022-10-16T03:27:58;2.77;;;1.37;;
2620;SDS011;1320;48.128;11.592;2022-10-16T03:30:24;2.80;;;1.27;;
2620;SDS011;1320;48.128;11.592;2022-10-16T03:32:50;2.67;;;1.37;;
2620;SDS011;1320;48.128;11.592;2022-10-16T03:35:19;2.13;;;1.20;;
2620;SDS011;1320;48.128;11.592;2022-10-16T03:37:45;2.50;;;1.40;;
2620;SDS011;1320;48.128;11.592;2022-10-16T03:40:11;3.10;;;1.40;;
2620;SDS011;1320;48.128;11.592;2022-10-16T03:42:36;3.40;;;1.50;;
2620;SDS011;1320;48.128;11.592;2022-10-16T03:45:02;2.70;;;1.33;;
2620;SDS011;1320;48.128;11.592;2022-10-16T03:47:29;2.37;;;1.20;;
2620;SDS011;1320;48.128;11.592;2022-10-16T03:49:54;3.00;;;1.40;;
2620;SDS011;1320;48.128;11.592;2022-10-16T03:52:20;2.50;;;1.10;;
2620;SDS011;1320;48.128;11.592;2022-10-16T03:54:45;3.30;;;1.50;;
2620;SDS011;1320;48.128;11.592;2022-10-16T03:57:11;2.57;;;1.33;;
2620;SDS011;1320;48.128;11.592;2022-10-16T03:59:37;9.37;;;1.57;;
2620;SDS011;1320;48.128;11.592;2022-10-16T04:02:02;2.70;;;1.37;;
2620;SDS011;1320;48.128;11.592;2022-10-16T04:04:28;2.50;;;1.27;;
2620;SDS011;1320;48.128;11.592;2022-10-16T04:06:54;2.73;;;1.23;;
2620;SDS011;1320;48.128;11.592;2022-10-16T04:09:19;4.20;;;1.70;;
2620;SDS011;1320;48.128;11.592;2022-10-16T04:11:45;2.97;;;1.30;;
2620;SDS011;1320;48.128;11.592;2022-10-16T04:14:10;3.60;;;1.20;;
2620;SDS011;1320;48.128;11.592;2022-10-16T04:16:36;3.10;;;1.40;;
2620;SDS011;1320;48.128;11.592;2022-10-16T04:19:02;2.90;;;1.40;;
2620;SDS011;1320;48.128;11.592;2022-10-16T04:21:27;4.10;;;1.70;;
2620;SDS011;1320;48.128;11.592;2022-10-16T04:23:53;2.30;;;1.10;;
2620;SDS011;1320;48.128;11.592;2022-10-16T04:26:19;2.50;;;1.30;;
2620;SDS011;1320;48.128;11.592;2022-10-16T04:28:45;3.50;;;1.70;;
2620;SDS011;1320;48.128;11.592;2022-10-16T04:31:10;4.27;;;1.80;;
2620;SDS011;1320;48.128;11.592;2022-10-16T04:33:36;5.43;;;2.10;;
2620;SDS011;1320;48.128;11.592;2022-10-16T04:36:02;2.60;;;1.20;;
2620;SDS011;1320;48.128;11.592;2022-10-16T04:38:28;2.90;;;1.40;;
2620;SDS011;1320;48.128;11.592;2022-10-16T04:40:55;2.80;;;1.60;;
2620;SDS011;1320;48.128;11.592;2022-10-16T04:43:21;3.90;;;1.50;;
2620;SDS011;1320;48.128;11.592;2022-10-16T04:45:47;2.53;;;1.33;;
2620;SDS011;1320;48.128;11.592;2022-10-16T04:48:12;3.00;;;1.50;;
2620;SDS011;1320;48.128;11.592;2022-10-16T04:50:38;3.33;;;1.47;;
2620;SDS011;1320;48.128;11.592;2022-10-16T04:53:04;2.53;;;1.40;;
2620;SDS011;1320;48.128;11.592;2022-10-16T04:55:30;5.27;;;1.60;;
2620;SDS011;1320;48.128;11.592;2022-10-16T04:57:56;2.63;;;1.43;;
2620;SDS011;1320;48.128;11.592;2022-10-16T05:00:22;3.27;;;1.53;;
2620;SDS011;1320;48.128;11.592;2022-10-16T05:02:49;3.13;;;1.60;;
2620;SDS011;1320;48.128;11.592;2022-10-16T05:05:15;2.70;;;1.30;;
2620;SDS011;1320;48.128;11.592;2022-10-16T05:07:41;2.80;;;1.30;;
2620;SDS011;1320;48.128;11.592;2022-10-16T05:10:07;2.73;;;1.10;;
2620;SDS011;1320;48.128;11.592;2022-10-16T05:12:32;3.07;;;1.37;;
2620;SDS011;1320;48.128;11.592;2022-10-16T05:14:58;2.97;;;1.50;;
2620;SDS011;1320;48.128;11.592;2022-10-16T05:17:24;2.93;;;1.30;;
2620;SDS011;1320;48.128;11.592;2022-10-16T05:19:50;2.73;;;1.40;;
2620;SDS011;1320;48.128;11.592;2022-10-16T05:22:16;3.33;;;1.30;;
2620;SDS011;1320;48.128;11.592;2022-10-16T05:24:42;2.27;;;1.20;;
2620;SDS011;1320;48.128;11.592;2022-10-16T05:27:08;3.03;;;1.30;;
2620;SDS011;1320;48.128;11.592;2022-10-16T05:29:33;3.20;;;1.40;;
2620;SDS011;1320;48.128;11.592;2022-10-16T05:32:00;2.67;;;1.50;;
2620;SDS011;1320;48.128;11.592;2022-10-16T05:34:25;3.50;;;1.57;;
2620;SDS011;1320;48.128;11.592;2022-10-16T05:36:51;2.93;;;1.40;;
2620;SDS011;1320;48.128;11.592;2022-10-16T05:39:17;3.20;;;1.60;;
2620;SDS011;1320;48.128;11.592;2022-10-16T05:41:43;2.10;;;1.27;;
2620;SDS011;1320;48.128;11.592;2022-10-16T05:44:09;2.43;;;1.30;;
2620;SDS011;1320;48.128;11.592;2022-10-16T05:46:34;3.60;;;1.63;;
2620;SDS011;1320;48.128;11.592;2022-10-16T05:49:00;2.70;;;1.30;;
2620;SDS011;1320;48.128;11.592;2022-10-16T05:51:26;2.63;;;1.63;;
2620;SDS011;1320;48.128;11.592;2022-10-16T05:53:52;3.03;;;1.40;;
2620;SDS011;1320;48.128;11.592;2022-10-16T05:56:17;3.70;;;1.60;;
2620;SDS011;1320;48.128;11.592;2022-10-16T05:58:43;2.90;;;1.40;;
2620;SDS011;1320;48.128;11.592;2022-10-16T06:01:14;3.43;;;1.67;;
2620;SDS011;1320;48.128;11.592;2022-10-16T06:03:41;3.10;;;1.70;;
2620;SDS011;1320;48.128;11.592;2022-10-16T06:06:11;3.93;;;1.87;;
2620;SDS011;1320;48.128;11.592;2022-10-16T06:08:38;3.37;;;2.00;;
2620;SDS011;1320;48.128;11.592;2022-10-16T06:11:06;2.73;;;1.47;;
2620;SDS011;1320;48.128;11.592;2022-10-16T06:13:33;2.67;;;1.53;;
2620;SDS011;1320;48.128;11.592;2022-10-16T06:16:00;2.97;;;2.00;;
2620;SDS011;1320;48.128;11.592;2022-10-16T06:18:26;2.40;;;1.53;;
2620;SDS011;1320;48.128;11.592;2022-10-16T06:20:53;3.40;;;1.77;;
2620;SDS011;1320;48.128;11.592;2022-10-16T06:23:19;2.70;;;1.30;;
2620;SDS011;1320;48.128;11.592;2022-10-16T06:25:45;2.90;;;1.50;;
2620;SDS011;1320;48.128;11.592;2022-10-16T06:28:11;4.33;;;1.60;;
2620;SDS011;1320;48.128;11.592;2022-10-16T06:30:38;3.27;;;2.00;;
2620;SDS011;1320;48.128;11.592;2022-10-16T06:33:03;4.37;;;1.77;;
2620;SDS011;1320;48.128;11.592;2022-10-16T06:35:29;2.80;;;1.40;;
2620;SDS011;1320;48.128;11.592;2022-10-16T06:37:56;3.77;;;1.80;;
2620;SDS011;1320;48.128;11.592;2022-10-16T06:40:22;2.70;;;1.40;;
2620;SDS011;1320;48.128;11.592;2022-10-16T06:42:48;3.70;;;2.10;;
2620;SDS011;1320;48.128;11.592;2022-10-16T06:45:14;3.23;;;1.80;;
2620;SDS011;1320;48.128;11.592;2022-10-16T06:47:39;3.03;;;1.70;;
2620;SDS011;1320;48.128;11.592;2022-10-16T06:50:05;4.00;;;1.77;;
2620;SDS011;1320;48.128;11.592;2022-10-16T06:52:32;3.10;;;1.70;;
2620;SDS011;1320;48.128;11.592;2022-10-16T06:54:59;3.10;;;1.60;;
2620;SDS011;1320;48.128;11.592;2022-10-16T06:57:25;2.70;;;1.53;;
2620;SDS011;1320;48.128;11.592;2022-10-16T06:59:51;2.87;;;1.57;;
2620;SDS011;1320;48.128;11.592;2022-10-16T07:02:16;3.10;;;1.70;;
2620;SDS011;1320;48.128;11.592;2022-10-16T07:04:42;5.50;;;1.47;;
2620;SDS011;1320;48.128;11.592;2022-10-16T07:07:08;3.00;;;1.77;;
2620;SDS011;1320;48.128;11.592;2022-10-16T07:09:33;3.17;;;1.87;;
2620;SDS011;1320;48.128;11.592;2022-10-16T07:11:59;2.97;;;1.63;;
2620;SDS011;1320;48.128;11.592;2022-10-16T07:14:24;3.40;;;1.90;;
2620;SDS011;1320;48.128;11.592;2022-10-16T07:16:50;4.30;;;2.10;;
2620;SDS011;1320;48.128;11.592;2022-10-16T07:19:16;3.07;;;1.97;;
2620;SDS011;1320;48.128;11.592;2022-10-16T07:21:43;3.37;;;2.10;;
2620;SDS011;1320;48.128;11.592;2022-10-16T07:24:13;4.47;;;2.20;;
2620;SDS011;1320;48.128;11.592;2022-10-16T07:26:40;2.70;;;1.50;;
2620;SDS011;1320;48.128;11.592;2022-10-16T07:29:14;4.00;;;1.50;;
2620;SDS011;1320;48.128;11.592;2022-10-16T07:31:42;3.90;;;1.60;;
2620;SDS011;1320;48.128;11.592;2022-10-16T07:34:08;2.50;;;1.60;;
2620;SDS011;1320;48.128;11.592;2022-10-16T07:36:35;2.87;;;1.57;;
2620;SDS011;1320;48.128;11.592;2022-10-16T07:39:00;2.70;;;1.40;;
2620;SDS011;1320;48.128;11.592;2022-10-16T07:41:26;3.53;;;2.10;;
2620;SDS011;1320;48.128;11.592;2022-10-16T07:43:53;3.60;;;1.70;;
2620;SDS011;1320;48.128;11.592;2022-10-16T07:46:20;3.40;;;1.80;;
2620;SDS011;1320;48.128;11.592;2022-10-16T07:48:46;3.27;;;1.80;;
2620;SDS011;1320;48.128;11.592;2022-10-16T07:51:16;3.03;;;1.57;;
2620;SDS011;1320;48.128;11.592;2022-10-16T07:53:43;2.90;;;1.43;;
2620;SDS011;1320;48.128;11.592;2022-10-16T07:56:09;3.77;;;1.70;;
2620;SDS011;1320;48.128;11.592;2022-10-16T07:58:36;2.90;;;1.40;;
2620;SDS011;1320;48.128;11.592;2022-10-16T08:01:06;3.30;;;1.50;;
2620;SDS011;1320;48.128;11.592;2022-10-16T08:03:37;2.70;;;1.83;;
2620;SDS011;1320;48.128;11.592;2022-10-16T08:06:03;2.73;;;1.40;;
2620;SDS011;1320;48.128;11.592;2022-10-16T08:08:29;2.83;;;1.40;;
2620;SDS011;1320;48.128;11.592;2022-10-16T08:10:55;3.30;;;1.77;;
2620;SDS011;1320;48.128;11.592;2022-10-16T08:13:21;3.60;;;2.00;;
2620;SDS011;1320;48.128;11.592;2022-10-16T08:15:47;3.80;;;1.40;;
2620;SDS011;1320;48.128;11.592;2022-10-16T08:18:13;2.60;;;1.53;;
2620;SDS011;1320;48.128;11.592;2022-10-16T08:20:41;3.90;;;1.90;;
2620;SDS011;1320;48.128;11.592;2022-10-16T08:23:07;3.07;;;1.80;;
2620;SDS011;1320;48.128;11.592;2022-10-16T08:25:36;3.10;;;1.60;;
2620;SDS011;1320;48.128;11.592;2022-10-16T08:28:06;3.00;;;1.60;;
2620;SDS011;1320;48.128;11.592;2022-10-16T08:30:33;3.33;;;1.87;;
2620;SDS011;1320;48.128;11.592;2022-10-16T08:32:59;5.43;;;1.60;;
2620;SDS011;1320;48.128;11.592;2022-10-16T08:35:25;2.90;;;1.60;;
2620;SDS011;1320;48.128;11.592;2022-10-16T08:37:50;3.67;;;1.90;;
2620;SDS011;1320;48.128;11.592;2022-10-16T08:40:20;2.57;;;1.30;;
2620;SDS011;1320;48.128;11.592;2022-10-16T08:48:49;2.77;;;1.60;;
2620;SDS011;1320;48.128;11.592;2022-10-16T08:51:32;2.70;;;1.80;;
2620;SDS011;1320;48.128;11.592;2022-10-16T08:56:28;2.30;;;1.37;;
2620;SDS011;1320;48.128;11.592;2022-10-16T08:58:54;2.83;;;1.70;;
2620;SDS011;1320;48.128;11.592;2022-10-16T09:01:21;2.87;;;1.50;;
2620;SDS011;1320;48.128;11.592;2022-10-16T09:06:46;3.20;;;1.30;;
2620;SDS011;1320;48.128;11.592;2022-10-16T09:25:46;2.70;;;1.27;;
2620;SDS011;1320;48.128;11.592;2022-10-16T09:28:14;2.80;;;1.60;;
2620;SDS011;1320;48.128;11.592;2022-10-16T09:30:41;2.60;;;1.40;;
2620;SDS011;1320;48.128;11.592;2022-10-16T09:33:07;2.70;;;1.47;;
2620;SDS011;1320;48.128;11.592;2022-10-16T09:38:33;2.33;;;1.30;;
2620;SDS011;1320;48.128;11.592;2022-10-16T09:41:01;3.93;;;1.50;;
2620;SDS011;1320;48.128;11.592;2022-10-16T09:48:50;2.53;;;1.40;;
2620;SDS011;1320;48.128;11.592;2022-10-16T09:51:25;2.73;;;1.13;;
2620;SDS011;1320;48.128;11.592;2022-10-16T09:53:57;3.17;;;1.60;;
2620;SDS011;1320;48.128;11.592;2022-10-16T09:56:24;2.93;;;1.40;;
2620;SDS011;1320;48.128;11.592;2022-10-16T09:58:56;2.33;;;1.40;;
2620;SDS011;1320;48.128;11.592;2022-10-16T10:01:26;2.60;;;1.30;;
2620;SDS011;1320;48.128;11.592;2022-10-16T10:04:03;2.40;;;1.37;;
2620;SDS011;1320;48.128;11.592;2022-10-16T10:06:31;2.50;;;1.87;;
2620;SDS011;1320;48.128;11.592;2022-10-16T10:09:26;3.50;;;2.00;;
2620;SDS011;1320;48.128;11.592;2022-10-16T10:14:24;3.50;;;1.50;;
2620;SDS011;1320;48.128;11.592;2022-10-16T10:16:50;2.73;;;1.60;;
2620;SDS011;1320;48.128;11.592;2022-10-16T10:19:21;2.57;;;1.63;;
2620;SDS011;1320;48.128;11.592;2022-10-16T10:21:49;2.40;;;1.60;;
2620;SDS011;1320;48.128;11.592;2022-10-16T10:24:17;2.40;;;1.50;;
2620;SDS011;1320;48.128;11.592;2022-10-16T10:26:48;2.73;;;1.70;;
2620;SDS011;1320;48.128;11.592;2022-10-16T10:29:46;2.67;;;1.30;;
2620;SDS011;1320;48.128;11.592;2022-10-16T10:33:08;4.17;;;2.10;;
2620;SDS011;1320;48.128;11.592;2022-10-16T10:35:35;2.37;;;1.30;;
2620;SDS011;1320;48.128;11.592;2022-10-16T10:38:20;2.50;;;1.60;;
2620;SDS011;1320;48.128;11.592;2022-10-16T10:46:34;3.03;;;1.57;;
2620;SDS011;1320;48.128;11.592;2022-10-16T10:56:57;2.60;;;1.37;;
2620;SDS011;1320;48.128;11.592;2022-10-16T11:02:52;2.20;;;1.30;;
2620;SDS011;1320;48.128;11.592;2022-10-16T11:05:40;2.77;;;1.40;;
2620;SDS011;1320;48.128;11.592;2022-10-16T11:08:17;2.40;;;1.50;;
2620;SDS011;1320;48.128;11.592;2022-10-16T11:10:54;2.90;;;1.57;;
2620;SDS011;1320;48.128;11.592;2022-10-16T11:13:45;2.60;;;1.20;;
2620;SDS011;1320;48.128;11.592;2022-10-16T11:19:02;2.20;;;1.20;;
2620;SDS011;1320;48.128;11.592;2022-10-16T11:21:49;2.27;;;1.40;;
2620;SDS011;1320;48.128;11.592;2022-10-16T11:27:50;2.53;;;1.30;;
2620;SDS011;1320;48.128;11.592;2022-10-16T11:30:21;2.40;;;1.40;;
2620;SDS011;1320;48.128;11.592;2022-10-16T11:38:35;2.90;;;1.60;;
2620;SDS011;1320;48.128;11.592;2022-10-16T11:41:26;2.00;;;1.20;;
2620;SDS011;1320;48.128;11.592;2022-10-16T11:47:09;2.50;;;1.50;;
2620;SDS011;1320;48.128;11.592;2022-10-16T11:49:45;1.80;;;1.00;;
2620;SDS011;1320;48.128;11.592;2022-10-16T11:52:17;2.40;;;1.13;;
2620;SDS011;1320;48.128;11.592;2022-10-16T11:54:57;2.77;;;1.30;;
2620;SDS011;1320;48.128;11.592;2022-10-16T11:57:32;2.00;;;1.10;;
2620;SDS011;1320;48.128;11.592;2022-10-16T12:05:19;2.00;;;1.10;;
2620;SDS011;1320;48.128;11.592;2022-10-16T12:07:51;5.00;;;0.90;;
2620;SDS011;1320;48.128;11.592;2022-10-16T12:10:29;2.43;;;1.10;;
2620;SDS011;1320;48.128;11.592;2022-10-16T12:13:02;2.63;;;1.10;;
2620;SDS011;1320;48.128;11.592;2022-10-16T12:15:47;1.90;;;0.90;;
2620;SDS011;1320;48.128;11.592;2022-10-16T12:18:22;2.10;;;1.30;;
2620;SDS011;1320;48.128;11.592;2022-10-16T12:20:56;2.83;;;1.67;;
2620;SDS011;1320;48.128;11.592;2022-10-16T12:23:25;2.63;;;1.07;;
2620;SDS011;1320;48.128;11.592;2022-10-16T12:25:58;3.30;;;1.27;;
2620;SDS011;1320;48.128;11.592;2022-10-16T12:28:29;1.70;;;1.00;;
2620;SDS011;1320;48.128;11.592;2022-10-16T12:31:01;2.30;;;1.10;;
2620;SDS011;1320;48.128;11.592;2022-10-16T12:33:35;1.80;;;0.90;;
2620;SDS011;1320;48.128;11.592;2022-10-16T12:36:05;1.70;;;1.00;;
2620;SDS011;1320;48.128;11.592;2022-10-16T12:38:46;1.70;;;0.90;;
2620;SDS011;1320;48.128;11.592;2022-10-16T12:41:26;2.30;;;1.10;;
2620;SDS011;1320;48.128;11.592;2022-10-16T12:43:57;1.90;;;0.97;;
2620;SDS011;1320;48.128;11.592;2022-10-16T12:49:55;2.20;;;1.20;;
2620;SDS011;1320;48.128;11.592;2022-10-16T12:51:53;2.80;;;1.13;;
2620;SDS011;1320;48.128;11.592;2022-10-16T12:54:29;2.00;;;1.00;;
2620;SDS011;1320;48.128;11.592;2022-10-16T13:19:13;2.07;;;1.20;;
2620;SDS011;1320;48.128;11.592;2022-10-16T13:30:19;1.90;;;1.10;;
2620;SDS011;1320;48.128;11.592;2022-10-16T13:32:51;1.70;;;0.93;;
2620;SDS011;1320;48.128;11.592;2022-10-16T13:35:32;2.00;;;1.20;;
2620;SDS011;1320;48.128;11.592;2022-10-16T13:38:12;1.87;;;0.90;;
2620;SDS011;1320;48.128;11.592;2022-10-16T13:40:52;1.93;;;0.93;;
2620;SDS011;1320;48.128;11.592;2022-10-16T13:46:13;1.87;;;1.10;;
2620;SDS011;1320;48.128;11.592;2022-10-16T13:48:43;2.30;;;1.20;;
2620;SDS011;1320;48.128;11.592;2022-10-16T13:51:21;2.20;;;1.10;;
2620;SDS011;1320;48.128;11.592;2022-10-16T13:53:47;2.80;;;0.97;;
2620;SDS011;1320;48.128;11.592;2022-10-16T13:56:14;1.90;;;1.20;;
2620;SDS011;1320;48.128;11.592;2022-10-16T13:58:58;1.60;;;0.93;;
2620;SDS011;1320;48.128;11.592;2022-10-16T14:01:43;2.00;;;0.90;;
2620;SDS011;1320;48.128;11.592;2022-10-16T14:04:10;1.90;;;1.20;;
2620;SDS011;1320;48.128;11.592;2022-10-16T14:06:40;2.17;;;1.13;;
2620;SDS011;1320;48.128;11.592;2022-10-16T14:11:50;1.87;;;1.13;;
2620;SDS011;1320;48.128;11.592;2022-10-16T14:14:21;1.90;;;1.20;;
2620;SDS011;1320;48.128;11.592;2022-10-16T14:16:48;2.40;;;1.23;;
2620;SDS011;1320;48.128;11.592;2022-10-16T14:19:21;1.70;;;1.00;;
2620;SDS011;1320;48.128;11.592;2022-10-16T14:21:52;3.80;;;1.43;;
2620;SDS011;1320;48.128;11.592;2022-10-16T14:26:57;1.63;;;0.97;;
2620;SDS011;1320;48.128;11.592;2022-10-16T14:29:24;1.60;;;1.00;;
2620;SDS011;1320;48.128;11.592;2022-10-16T14:31:58;2.00;;;1.00;;
2620;SDS011;1320;48.128;11.592;2022-10-16T14:34:31;2.00;;;1.20;;
2620;SDS011;1320;48.128;11.592;2022-10-16T14:37:09;1.80;;;1.00;;
2620;SDS011;1320;48.128;11.592;2022-10-16T14:39:50;1.83;;;1.10;;
2620;SDS011;1320;48.128;11.592;2022-10-16T14:42:17;2.23;;;1.03;;
2620;SDS011;1320;48.128;11.592;2022-10-16T14:44:44;2.10;;;1.00;;
2620;SDS011;1320;48.128;11.592;2022-10-16T14:47:19;2.10;;;1.37;;
2620;SDS011;1320;48.128;11.592;2022-10-16T14:49:49;2.77;;;1.30;;
2620;SDS011;1320;48.128;11.592;2022-10-16T14:52:16;2.10;;;1.13;;
2620;SDS011;1320;48.128;11.592;2022-10-16T14:54:42;2.40;;;1.50;;
2620;SDS011;1320;48.128;11.592;2022-10-16T14:57:23;1.80;;;1.03;;
2620;SDS011;1320;48.128;11.592;2022-10-16T14:59:52;2.00;;;1.13;;
2620;SDS011;1320;48.128;11.592;2022-10-16T15:02:34;2.00;;;1.23;;
2620;SDS011;1320;48.128;11.592;2022-10-16T15:05:23;2.00;;;1.10;;
2620;SDS011;1320;48.128;11.592;2022-10-16T15:07:49;2.20;;;1.40;;
2620;SDS011;1320;48.128;11.592;2022-10-16T15:10:16;1.90;;;1.20;;
2620;SDS011;1320;48.128;11.592;2022-10-16T15:12:43;2.97;;;1.40;;
2620;SDS011;1320;48.128;11.592;2022-10-16T15:17:54;2.10;;;1.20;;
2620;SDS011;1320;48.128;11.592;2022-10-16T15:20:24;2.60;;;1.33;;
2620;SDS011;1320;48.128;11.592;2022-10-16T15:22:55;2.37;;;1.40;;
2620;SDS011;1320;48.128;11.592;2022-10-16T15:27:59;2.93;;;1.63;;
2620;SDS011;1320;48.128;11.592;2022-10-16T15:30:26;3.80;;;2.00;;
2620;SDS011;1320;48.128;11.592;2022-10-16T15:32:52;2.97;;;1.80;;
2620;SDS011;1320;48.128;11.592;2022-10-16T15:35:18;3.17;;;1.90;;
2620;SDS011;1320;48.128;11.592;2022-10-16T15:37:44;2.53;;;1.30;;
2620;SDS011;1320;48.128;11.592;2022-10-16T15:40:12;4.53;;;1.53;;
2620;SDS011;1320;48.128;11.592;2022-10-16T15:42:37;3.97;;;1.53;;
2620;SDS011;1320;48.128;11.592;2022-10-16T15:45:04;3.47;;;1.50;;
2620;SDS011;1320;48.128;11.592;2022-10-16T15:47:31;2.60;;;1.33;;
2620;SDS011;1320;48.128;11.592;2022-10-16T15:49:57;2.60;;;1.47;;
2620;SDS011;1320;48.128;11.592;2022-10-16T15:52:22;2.60;;;1.40;;
2620;SDS011;1320;48.128;11.592;2022-10-16T15:54:48;3.77;;;2.00;;
2620;SDS011;1320;48.128;11.592;2022-10-16T15:57:13;3.77;;;1.70;;
2620;SDS011;1320;48.128;11.592;2022-10-16T15:59:39;4.03;;;2.00;;
2620;SDS011;1320;48.128;11.592;2022-10-16T16:02:05;3.77;;;1.70;;
2620;SDS011;1320;48.128;11.592;2022-10-16T16:04:30;2.60;;;1.70;;
2620;SDS011;1320;48.128;11.592;2022-10-16T16:06:56;3.27;;;1.97;;
2620;SDS011;1320;48.128;11.592;2022-10-16T16:09:22;3.20;;;1.80;;
2620;SDS011;1320;48.128;11.592;2022-10-16T16:11:48;3.10;;;1.50;;
2620;SDS011;1320;48.128;11.592;2022-10-16T16:14:16;2.80;;;1.70;;
2620;SDS011;1320;48.128;11.592;2022-10-16T16:16:41;7.50;;;1.47;;
2620;SDS011;1320;48.128;11.592;2022-10-16T16:19:07;3.87;;;2.13;;
2620;SDS011;1320;48.128;11.592;2022-10-16T16:21:34;2.57;;;1.60;;
2620;SDS011;1320;48.128;11.592;2022-10-16T16:24:00;3.70;;;2.07;;
2620;SDS011;1320;48.128;11.592;2022-10-16T16:26:29;3.40;;;1.87;;
2620;SDS011;1320;48.128;11.592;2022-10-16T16:29:01;3.10;;;1.80;;
2620;SDS011;1320;48.128;11.592;2022-10-16T16:31:28;6.50;;;2.17;;
2620;SDS011;1320;48.128;11.592;2022-10-16T16:33:54;7.57;;;3.00;;
2620;SDS011;1320;48.128;11.592;2022-10-16T16:36:21;6.40;;;3.17;;
2620;SDS011;1320;48.128;11.592;2022-10-16T16:38:48;5.23;;;3.40;;
2620;SDS011;1320;48.128;11.592;2022-10-16T16:41:14;3.53;;;2.30;;
2620;SDS011;1320;48.128;11.592;2022-10-16T16:43:41;3.37;;;1.60;;
2620;SDS011;1320;48.128;11.592;2022-10-16T16:46:07;5.00;;;2.30;;
2620;SDS011;1320;48.128;11.592;2022-10-16T16:48:33;3.43;;;1.80;;
2620;SDS011;1320;48.128;11.592;2022-10-16T16:51:17;2.73;;;1.60;;
2620;SDS011;1320;48.128;11.592;2022-10-16T16:53:48;3.80;;;2.57;;
2620;SDS011;1320;48.128;11.592;2022-10-16T16:56:15;4.63;;;2.20;;
2620;SDS011;1320;48.128;11.592;2022-10-16T16:58:46;3.50;;;1.90;;
2620;SDS011;1320;48.128;11.592;2022-10-16T17:01:12;3.67;;;2.20;;
2620;SDS011;1320;48.128;11.592;2022-10-16T17:03:41;4.67;;;2.80;;
2620;SDS011;1320;48.128;11.592;2022-10-16T17:06:09;5.77;;;3.33;;
2620;SDS011;1320;48.128;11.592;2022-10-16T17:08:37;4.03;;;2.90;;
2620;SDS011;1320;48.128;11.592;2022-10-16T17:11:04;4.07;;;2.73;;
2620;SDS011;1320;48.128;11.592;2022-10-16T17:13:34;4.23;;;2.30;;
2620;SDS011;1320;48.128;11.592;2022-10-16T17:16:02;5.13;;;2.70;;
2620;SDS011;1320;48.128;11.592;2022-10-16T17:18:30;5.93;;;2.70;;
2620;SDS011;1320;48.128;11.592;2022-10-16T17:21:00;4.90;;;2.90;;
2620;SDS011;1320;48.128;11.592;2022-10-16T17:23:27;4.00;;;2.57;;
2620;SDS011;1320;48.128;11.592;2022-10-16T17:25:53;3.47;;;2.10;;
2620;SDS011;1320;48.128;11.592;2022-10-16T17:28:18;4.33;;;3.00;;
2620;SDS011;1320;48.128;11.592;2022-10-16T17:30:44;6.73;;;3.47;;
2620;SDS011;1320;48.128;11.592;2022-10-16T17:33:10;4.30;;;2.30;;
2620;SDS011;1320;48.128;11.592;2022-10-16T17:35:37;5.20;;;3.03;;
2620;SDS011;1320;48.128;11.592;2022-10-16T17:38:04;5.25;;;2.45;;